Time;durP1;ratioP1;P1;durP2;ratioP2;P2;SDS_P1;SDS_P2;PMS_P1;PMS_P2;Temp;Humidity;BMP_temperature;BMP_pressure;BME280_temperature;BME280_humidity;BME280_pressure;Samples;Min_cycle;Max_cycle;Signal;HPM_P1;HPM_P2
2021/10/01 00:02:06;;;;;;;6.13;4.90;;;12.90;69.20;;;;;;5010038;28;20486;-49
2021/10/01 00:04:40;;;;;;;6.88;5.00;;;12.90;69.20;;;;;;5026480;28;20021;-49
2021/10/01 00:07:06;;;;;;;6.75;4.85;;;12.80;69.30;;;;;;5028326;28;20033;-49
2021/10/01 00:09:34;;;;;;;6.53;4.90;;;12.90;69.50;;;;;;5027442;28;20037;-50
2021/10/01 00:11:59;;;;;;;6.65;5.07;;;12.80;69.40;;;;;;5027652;28;20036;-49
2021/10/01 00:14:27;;;;;;;6.53;5.20;;;12.80;69.40;;;;;;5027954;28;20445;-49
2021/10/01 00:16:54;;;;;;;5.65;5.05;;;12.80;70.10;;;;;;5026935;28;20171;-49
2021/10/01 00:19:21;;;;;;;7.25;4.93;;;12.80;69.30;;;;;;5028026;28;20077;-49
2021/10/01 00:21:47;;;;;;;6.85;5.25;;;12.80;69.40;;;;;;5025731;28;20029;-49
2021/10/01 00:24:13;;;;;;;6.35;5.13;;;12.80;69.50;;;;;;5008399;28;20052;-49
2021/10/01 00:26:40;;;;;;;6.50;4.80;;;12.70;69.20;;;;;;5030891;28;20037;-49
2021/10/01 00:29:08;;;;;;;7.93;5.03;;;12.70;69.10;;;;;;5031506;28;20469;-49
2021/10/01 00:31:34;;;;;;;8.30;6.13;;;12.70;69.20;;;;;;5030958;28;20424;-49
2021/10/01 00:34:01;;;;;;;9.02;6.50;;;12.70;69.10;;;;;;5031825;28;20096;-49
2021/10/01 00:36:28;;;;;;;9.82;6.70;;;12.70;69.10;;;;;;5028924;28;20037;-49
2021/10/01 00:38:55;;;;;;;8.20;6.32;;;12.70;69.00;;;;;;5030866;28;20058;-49
2021/10/01 00:41:20;;;;;;;7.95;6.22;;;12.70;69.00;;;;;;5030872;28;20492;-49
2021/10/01 00:43:46;;;;;;;8.13;5.70;;;12.70;69.10;;;;;;5031896;28;20029;-50
2021/10/01 00:46:12;;;;;;;9.82;5.97;;;12.70;68.90;;;;;;5031271;28;20022;-50
2021/10/01 00:48:37;;;;;;;8.85;6.10;;;12.70;69.10;;;;;;5030784;28;20439;-49
2021/10/01 00:51:04;;;;;;;7.38;6.05;;;12.70;69.00;;;;;;5031171;28;20064;-49
2021/10/01 00:53:31;;;;;;;9.38;6.57;;;12.60;68.90;;;;;;5030458;28;20084;-49
2021/10/01 00:55:57;;;;;;;7.18;6.45;;;12.60;69.10;;;;;;5031944;28;20021;-49
2021/10/01 00:58:22;;;;;;;7.68;6.18;;;12.60;69.10;;;;;;5030936;28;20098;-49
2021/10/01 01:01:08;;;;;;;8.23;6.75;;;12.60;69.20;;;;;;5031593;28;20017;-50
2021/10/01 01:03:35;;;;;;;8.55;7.18;;;12.60;69.20;;;;;;5029129;28;20045;-49
2021/10/01 01:06:06;;;;;;;6.63;5.47;;;12.60;69.10;;;;;;5031727;28;20121;-49
2021/10/01 01:08:56;;;;;;;9.18;6.82;;;12.60;69.20;;;;;;5030459;28;20499;-49
2021/10/01 01:12:00;;;;;;;8.63;6.18;;;12.60;69.20;;;;;;5008287;28;20037;-49
2021/10/01 01:14:53;;;;;;;7.57;6.18;;;12.60;69.30;;;;;;5009009;28;20076;-49
2021/10/01 01:17:43;;;;;;;8.05;6.03;;;12.50;69.30;;;;;;5029693;28;20033;-49
2021/10/01 01:20:30;;;;;;;7.03;5.80;;;12.50;69.20;;;;;;5030065;28;20021;-50
2021/10/01 01:23:14;;;;;;;8.90;6.45;;;12.50;69.40;;;;;;5030407;28;20397;-49
2021/10/01 01:25:53;;;;;;;7.40;5.80;;;12.50;69.40;;;;;;5031044;28;20068;-49
2021/10/01 01:28:54;;;;;;;8.77;6.53;;;12.50;69.40;;;;;;5030514;28;20108;-49
2021/10/01 01:31:46;;;;;;;8.85;7.22;;;12.50;69.40;;;;;;5030846;28;20051;-50
2021/10/01 01:34:15;;;;;;;;;;;12.50;69.30;;;;;;5007841;28;20489;-49
2021/10/01 01:36:42;;;;;;;8.50;5.75;;;12.50;69.40;;;;;;5029877;28;20371;-49
2021/10/01 01:39:10;;;;;;;13.30;6.75;;;12.50;69.40;;;;;;5028981;28;20088;-50
2021/10/01 01:41:36;;;;;;;8.82;6.85;;;12.50;69.40;;;;;;5026491;28;20036;-49
2021/10/01 01:44:02;;;;;;;6.38;5.25;;;12.50;69.50;;;;;;5030122;28;20063;-51
2021/10/01 01:46:29;;;;;;;6.75;5.70;;;12.50;69.40;;;;;;5030256;28;20034;-49
2021/10/01 01:48:56;;;;;;;7.47;5.45;;;12.50;69.50;;;;;;5030804;28;20036;-51
2021/10/01 01:51:23;;;;;;;8.52;5.78;;;12.50;69.40;;;;;;5030348;28;20017;-49
2021/10/01 01:53:49;;;;;;;7.30;6.13;;;12.50;69.30;;;;;;5030069;28;20069;-50
2021/10/01 01:56:16;;;;;;;9.55;6.03;;;12.50;69.20;;;;;;5030161;28;20401;-50
2021/10/01 01:58:42;;;;;;;8.57;6.18;;;12.50;69.30;;;;;;5028576;28;20112;-49
2021/10/01 02:01:08;;;;;;;8.02;6.18;;;12.50;69.30;;;;;;5029938;28;20087;-49
2021/10/01 02:03:35;;;;;;;9.85;6.47;;;12.50;69.30;;;;;;5030363;28;20435;-49
2021/10/01 02:06:03;;;;;;;9.38;6.38;;;12.50;69.40;;;;;;5029402;28;20350;-50
2021/10/01 02:08:29;;;;;;;7.55;5.80;;;12.50;69.50;;;;;;5029703;28;20497;-49
2021/10/01 02:10:56;;;;;;;10.13;6.88;;;12.50;69.60;;;;;;5029836;28;20025;-49
2021/10/01 02:13:23;;;;;;;7.45;6.05;;;12.50;69.60;;;;;;5029264;28;20033;-49
2021/10/01 02:15:54;;;;;;;7.60;6.05;;;12.50;69.50;;;;;;5027944;28;20136;-49
2021/10/01 02:18:25;;;;;;;8.70;6.57;;;12.50;69.50;;;;;;5029228;28;20033;-49
2021/10/01 02:20:55;;;;;;;7.82;6.20;;;12.50;69.60;;;;;;5028748;28;20029;-49
2021/10/01 02:23:21;;;;;;;9.73;6.53;;;12.40;69.60;;;;;;5028912;28;20079;-50
2021/10/01 02:28:38;;;;;;;8.63;6.40;;;12.40;69.60;;;;;;5029793;28;20051;-49
2021/10/01 02:31:21;;;;;;;7.35;5.82;;;12.40;69.70;;;;;;5029590;28;20026;-49
2021/10/01 02:33:50;;;;;;;7.60;5.95;;;12.30;69.70;;;;;;5028954;28;20044;-50
2021/10/01 02:36:15;;;;;;;8.85;6.40;;;12.30;69.80;;;;;;5029302;28;20028;-49
2021/10/01 02:38:42;;;;;;;7.07;5.82;;;12.30;69.80;;;;;;5028355;28;20125;-49
2021/10/01 02:41:07;;;;;;;8.80;6.70;;;12.30;70.00;;;;;;5029288;28;20021;-49
2021/10/01 02:43:33;;;;;;;8.98;5.95;;;12.30;69.90;;;;;;5029382;28;21948;-50
2021/10/01 02:45:59;;;;;;;9.93;6.75;;;12.30;70.00;;;;;;5028048;28;20104;-49
2021/10/01 02:48:25;;;;;;;7.70;6.15;;;12.30;70.00;;;;;;5026259;28;20083;-49
2021/10/01 02:50:56;;;;;;;8.07;6.53;;;12.20;70.10;;;;;;5029341;28;20033;-49
2021/10/01 02:53:29;;;;;;;10.02;7.18;;;12.20;70.20;;;;;;5027706;28;20033;-49
2021/10/01 02:56:29;;;;;;;8.65;6.72;;;12.20;70.30;;;;;;5029594;28;20037;-50
2021/10/01 02:58:58;;;;;;;8.30;6.53;;;12.30;70.30;;;;;;5020926;28;20049;-49
2021/10/01 03:01:27;;;;;;;8.50;7.22;;;12.20;70.40;;;;;;5028514;28;20025;-49
2021/10/01 03:03:58;;;;;;;7.75;6.45;;;12.20;70.50;;;;;;5026300;28;20034;-50
2021/10/01 03:06:28;;;;;;;8.50;6.65;;;12.20;70.70;;;;;;5028491;28;20033;-53
2021/10/01 03:08:54;;;;;;;6.57;5.03;;;12.20;70.70;;;;;;5028485;28;20044;-49
2021/10/01 03:11:23;;;;;;;8.35;6.10;;;12.20;70.50;;;;;;5027878;28;20021;-49
2021/10/01 03:13:51;;;;;;;7.18;5.30;;;12.20;70.50;;;;;;5026270;28;20044;-49
2021/10/01 03:16:19;;;;;;;7.53;5.65;;;12.20;70.50;;;;;;5027207;28;20025;-49
2021/10/01 03:18:45;;;;;;;7.43;5.63;;;12.20;70.50;;;;;;5027351;28;21360;-49
2021/10/01 03:21:12;;;;;;;6.32;4.80;;;12.20;70.50;;;;;;5027365;28;20022;-50
2021/10/01 03:23:40;;;;;;;7.25;5.15;;;12.10;70.50;;;;;;5027500;28;20025;-48
2021/10/01 03:26:06;;;;;;;5.93;5.05;;;12.10;70.50;;;;;;5026645;28;20711;-49
2021/10/01 03:28:31;;;;;;;6.75;5.38;;;12.10;70.50;;;;;;5028063;28;20036;-49
2021/10/01 03:30:57;;;;;;;7.40;5.60;;;12.10;70.50;;;;;;5028308;28;20519;-49
2021/10/01 03:33:25;;;;;;;6.75;4.72;;;12.10;70.60;;;;;;5027658;28;20052;-49
2021/10/01 03:35:51;;;;;;;5.65;4.78;;;12.10;70.80;;;;;;5028496;28;20481;-49
2021/10/01 03:38:18;;;;;;;7.43;5.10;;;12.10;70.70;;;;;;5028123;28;20417;-49
2021/10/01 03:40:46;;;;;;;7.03;5.22;;;12.10;70.80;;;;;;5027451;28;20029;-49
2021/10/01 03:43:13;;;;;;;5.78;5.00;;;12.10;70.80;;;;;;5027590;28;20033;-49
2021/10/01 03:45:40;;;;;;;6.25;4.78;;;12.10;71.00;;;;;;5027955;28;20029;-49
2021/10/01 03:48:07;;;;;;;7.28;5.72;;;12.10;71.10;;;;;;5028211;28;20037;-50
2021/10/01 03:50:34;;;;;;;8.05;5.30;;;12.10;71.10;;;;;;5028722;28;20068;-49
2021/10/01 03:53:00;;;;;;;7.00;5.03;;;12.10;71.20;;;;;;5027638;28;20087;-52
2021/10/01 03:55:27;;;;;;;6.80;5.10;;;12.10;71.30;;;;;;5023798;28;20033;-49
2021/10/01 03:57:52;;;;;;;6.63;5.35;;;12.10;71.50;;;;;;5026505;28;20028;-49
2021/10/01 04:00:19;;;;;;;7.25;5.30;;;12.00;71.50;;;;;;5028135;28;20018;-49
2021/10/01 04:02:45;;;;;;;7.32;5.32;;;12.10;71.70;;;;;;5028555;28;21221;-51
2021/10/01 04:05:12;;;;;;;6.18;4.93;;;12.10;71.60;;;;;;5028023;28;20480;-50
2021/10/01 04:07:37;;;;;;;6.70;5.20;;;12.10;71.70;;;;;;5027978;28;20069;-49
2021/10/01 04:10:05;;;;;;;6.93;5.25;;;12.10;71.70;;;;;;5028418;28;20061;-49
2021/10/01 04:12:30;;;;;;;6.15;4.78;;;12.20;71.70;;;;;;5025404;28;20124;-49
2021/10/01 04:14:56;;;;;;;7.63;5.30;;;12.20;71.80;;;;;;5026868;28;20544;-49
2021/10/01 04:17:22;;;;;;;7.18;5.25;;;12.20;71.70;;;;;;5028296;28;20037;-49
2021/10/01 04:19:49;;;;;;;7.82;4.65;;;12.20;71.60;;;;;;5027301;28;20072;-51
2021/10/01 04:22:15;;;;;;;6.90;5.22;;;12.20;71.60;;;;;;5028298;28;20088;-49
2021/10/01 04:24:41;;;;;;;5.97;4.63;;;12.20;71.70;;;;;;5027564;28;20083;-49
2021/10/01 04:27:06;;;;;;;8.45;4.97;;;12.20;71.60;;;;;;5027305;28;20037;-49
2021/10/01 04:29:32;;;;;;;6.78;4.70;;;12.30;71.60;;;;;;5028003;28;20120;-50
2021/10/01 04:32:00;;;;;;;6.05;4.90;;;12.30;71.50;;;;;;5027695;28;20412;-50
2021/10/01 04:34:29;;;;;;;8.60;5.30;;;12.30;71.60;;;;;;5027724;28;20440;-49
2021/10/01 04:36:54;;;;;;;7.63;5.53;;;12.30;71.70;;;;;;5028766;28;20025;-49
2021/10/01 04:39:20;;;;;;;6.20;4.90;;;12.30;71.80;;;;;;5027678;28;20402;-50
2021/10/01 04:41:46;;;;;;;7.50;4.97;;;12.40;71.80;;;;;;5027447;28;20033;-49
2021/10/01 04:44:12;;;;;;;6.95;5.10;;;12.40;71.90;;;;;;5024048;28;20037;-49
2021/10/01 04:46:38;;;;;;;6.75;5.28;;;12.40;71.80;;;;;;5025557;28;20028;-49
2021/10/01 04:49:03;;;;;;;5.93;4.93;;;12.50;71.80;;;;;;5027496;28;20311;-49
2021/10/01 04:51:29;;;;;;;7.03;5.28;;;12.50;71.70;;;;;;5026658;28;20041;-49
2021/10/01 04:53:55;;;;;;;6.30;5.05;;;12.50;71.80;;;;;;5027642;28;20032;-49
2021/10/01 04:56:21;;;;;;;7.05;5.10;;;12.60;71.90;;;;;;5027146;28;20075;-49
2021/10/01 04:58:46;;;;;;;5.85;4.65;;;12.60;71.70;;;;;;5026330;28;20033;-49
2021/10/01 05:01:12;;;;;;;7.03;5.00;;;12.60;71.70;;;;;;5022485;28;20036;-50
2021/10/01 05:03:38;;;;;;;5.75;5.03;;;12.70;71.80;;;;;;5025148;28;20469;-49
2021/10/01 05:06:04;;;;;;;6.75;5.10;;;12.70;71.80;;;;;;5025959;28;20022;-49
2021/10/01 05:08:29;;;;;;;8.60;5.90;;;12.70;71.70;;;;;;5026475;28;20120;-50
2021/10/01 05:10:55;;;;;;;7.20;5.57;;;12.80;71.70;;;;;;5027222;28;20547;-51
2021/10/01 05:13:21;;;;;;;9.00;5.57;;;12.80;71.40;;;;;;5030383;28;20465;-49
2021/10/01 05:15:48;;;;;;;6.65;5.03;;;12.80;71.50;;;;;;5028984;28;20033;-49
2021/10/01 05:18:15;;;;;;;6.57;5.07;;;12.80;71.30;;;;;;5026201;28;20065;-51
2021/10/01 05:20:41;;;;;;;7.63;5.80;;;12.80;71.30;;;;;;5029521;28;20112;-49
2021/10/01 05:23:07;;;;;;;8.45;6.05;;;12.80;71.20;;;;;;5012106;28;20133;-51
2021/10/01 05:25:33;;;;;;;8.05;5.45;;;12.80;71.20;;;;;;5029659;28;20443;-49
2021/10/01 05:27:58;;;;;;;8.35;5.72;;;12.90;71.20;;;;;;5029360;28;20499;-49
2021/10/01 05:30:24;;;;;;;6.60;5.15;;;12.80;71.10;;;;;;5027218;28;20026;-49
2021/10/01 05:32:50;;;;;;;5.90;4.65;;;12.80;71.10;;;;;;5027698;28;20022;-49
2021/10/01 05:35:16;;;;;;;6.50;5.20;;;12.80;70.90;;;;;;5029802;28;20034;-49
2021/10/01 05:37:41;;;;;;;7.40;5.97;;;12.80;71.20;;;;;;5029859;28;20100;-49
2021/10/01 05:40:08;;;;;;;8.25;5.70;;;12.80;71.20;;;;;;5030239;28;20021;-49
2021/10/01 05:42:33;;;;;;;9.20;6.38;;;12.80;71.10;;;;;;5029852;28;20037;-49
2021/10/01 05:44:59;;;;;;;7.85;5.50;;;12.80;70.90;;;;;;5029105;28;20485;-49
2021/10/01 05:47:27;;;;;;;7.13;5.35;;;12.70;70.90;;;;;;5029514;28;20034;-49
2021/10/01 05:49:55;;;;;;;8.00;5.72;;;12.70;71.00;;;;;;5024675;28;20045;-51
2021/10/01 05:54:47;;;;;;;8.68;5.18;;;12.70;71.20;;;;;;5028881;28;20041;-50
2021/10/01 05:57:13;;;;;;;8.25;5.82;;;12.70;71.40;;;;;;5029121;28;20029;-49
2021/10/01 05:59:40;;;;;;;7.22;5.72;;;12.80;71.70;;;;;;5029093;28;20115;-50
2021/10/01 06:02:12;;;;;;;8.07;5.85;;;12.90;71.60;;;;;;5023604;28;20033;-50
2021/10/01 06:04:37;;;;;;;8.77;5.55;;;13.10;71.30;;;;;;5026727;28;20469;-49
2021/10/01 06:07:03;;;;;;;8.13;5.97;;;13.20;71.00;;;;;;5026391;28;20040;-50
2021/10/01 06:09:29;;;;;;;8.02;5.35;;;13.30;71.10;;;;;;5025530;28;20069;-49
2021/10/01 06:11:54;;;;;;;8.40;5.72;;;13.30;71.10;;;;;;5023392;28;20104;-49
2021/10/01 06:14:22;;;;;;;7.10;5.55;;;13.40;70.80;;;;;;5025085;28;20101;-49
2021/10/01 06:16:49;;;;;;;7.43;5.57;;;13.50;70.50;;;;;;5021774;28;20026;-51
2021/10/01 06:19:16;;;;;;;6.88;5.18;;;13.50;70.20;;;;;;5027099;28;20036;-51
2021/10/01 06:21:41;;;;;;;6.38;5.07;;;13.50;70.00;;;;;;5024887;28;20040;-49
2021/10/01 06:24:07;;;;;;;7.50;5.07;;;13.50;70.00;;;;;;5020536;28;20030;-49
2021/10/01 06:26:33;;;;;;;7.75;5.65;;;13.50;70.80;;;;;;5020351;28;20021;-50
2021/10/01 06:28:58;;;;;;;6.78;5.03;;;13.50;70.00;;;;;;5022444;28;20033;-49
2021/10/01 06:31:24;;;;;;;6.32;4.93;;;13.50;70.00;;;;;;5021368;28;20400;-49
2021/10/01 06:33:50;;;;;;;6.38;5.22;;;13.50;70.00;;;;;;5023540;28;20436;-52
2021/10/01 06:36:19;;;;;;;6.68;5.22;;;13.50;70.10;;;;;;5025447;28;20623;-52
2021/10/01 06:38:46;;;;;;;9.88;5.60;;;13.40;70.20;;;;;;5021278;28;21153;-52
2021/10/01 06:41:13;;;;;;;8.02;4.90;;;13.40;70.10;;;;;;5015908;28;20034;-49
2021/10/01 06:43:39;;;;;;;7.10;4.85;;;13.40;70.20;;;;;;5014186;28;20041;-49
2021/10/01 06:46:12;;;;;;;6.93;5.13;;;13.40;70.20;;;;;;5017309;28;20034;-49
2021/10/01 08:18:23;;;;;;;7.78;5.63;;;13.90;69.90;;;;;;5004772;28;20048;-51
2021/10/01 08:20:49;;;;;;;8.20;6.47;;;14.20;70.30;;;;;;4998353;28;20156;-51
2021/10/01 08:23:15;;;;;;;10.20;6.15;;;14.20;70.20;;;;;;4999954;28;20041;-50
2021/10/01 08:25:41;;;;;;;9.20;6.22;;;14.30;70.30;;;;;;5003732;28;20026;-51
2021/10/01 08:28:08;;;;;;;6.43;5.25;;;14.30;70.40;;;;;;5003921;28;20038;-50
2021/10/01 08:30:34;;;;;;;6.00;4.72;;;14.30;70.20;;;;;;5003498;28;20037;-53
2021/10/01 08:33:00;;;;;;;6.35;5.40;;;14.30;70.20;;;;;;5010683;28;20587;-52
2021/10/01 08:35:25;;;;;;;6.90;5.13;;;14.30;70.10;;;;;;5005329;28;20151;-53
2021/10/01 08:37:53;;;;;;;7.80;5.38;;;14.40;70.30;;;;;;5007031;28;20041;-51
2021/10/01 08:40:20;;;;;;;6.22;4.75;;;14.30;70.10;;;;;;5011285;28;20037;-50
2021/10/01 08:42:47;;;;;;;6.35;4.60;;;14.40;69.90;;;;;;4996677;28;20104;-50
2021/10/01 08:45:15;;;;;;;6.38;4.15;;;14.40;69.80;;;;;;4999491;28;20057;-51
2021/10/01 08:47:42;;;;;;;6.80;4.82;;;14.40;69.90;;;;;;5006993;28;20148;-50
2021/10/01 08:50:09;;;;;;;5.28;4.25;;;14.40;70.10;;;;;;5008329;28;20033;-51
2021/10/01 08:52:35;;;;;;;5.80;4.65;;;14.40;69.90;;;;;;5012616;28;20064;-50
2021/10/01 08:55:04;;;;;;;6.03;5.00;;;14.50;69.70;;;;;;5010196;28;20494;-50
2021/10/01 08:57:31;;;;;;;7.03;4.65;;;14.50;69.70;;;;;;4992781;28;20128;-50
2021/10/01 08:59:58;;;;;;;5.75;4.63;;;14.50;69.60;;;;;;5011976;28;20034;-51
2021/10/01 09:02:24;;;;;;;5.78;5.07;;;14.50;69.40;;;;;;5010909;28;20033;-50
2021/10/01 09:04:55;;;;;;;5.85;4.53;;;14.50;69.50;;;;;;5005939;28;20267;-50
2021/10/01 09:07:23;;;;;;;5.93;5.05;;;14.60;69.40;;;;;;5010255;28;20126;-53
2021/10/01 09:09:51;;;;;;;7.20;5.70;;;14.60;69.30;;;;;;5013752;28;20104;-50
2021/10/01 09:12:17;;;;;;;4.97;4.47;;;14.60;69.40;;;;;;5011626;28;20520;-50
2021/10/01 09:14:48;;;;;;;6.05;4.30;;;14.50;69.30;;;;;;5012060;28;20033;-51
2021/10/01 09:17:19;;;;;;;5.18;3.63;;;14.60;69.10;;;;;;5012994;28;20055;-51
2021/10/01 09:19:45;;;;;;;5.05;4.00;;;14.60;69.00;;;;;;5016772;28;20037;-49
2021/10/01 09:22:22;;;;;;;4.75;3.92;;;14.60;68.90;;;;;;5013202;28;20112;-50
2021/10/01 09:24:48;;;;;;;4.57;3.67;;;14.60;68.70;;;;;;5012897;28;20536;-49
2021/10/01 09:27:13;;;;;;;6.18;4.22;;;14.70;68.40;;;;;;5013816;28;20039;-53
2021/10/01 09:29:39;;;;;;;5.40;3.85;;;14.60;68.00;;;;;;5011767;28;20043;-49
2021/10/01 09:32:10;;;;;;;5.07;3.60;;;14.70;68.00;;;;;;5013123;28;20080;-50
2021/10/01 09:34:38;;;;;;;;;;;14.70;67.50;;;;;;5014178;28;20033;-50
2021/10/01 09:37:14;;;;;;;6.90;4.05;;;14.60;66.90;;;;;;5010350;28;19917;-49
2021/10/01 09:39:43;;;;;;;4.38;3.30;;;14.70;66.90;;;;;;4993685;28;20030;-51
2021/10/01 09:42:18;;;;;;;3.72;3.10;;;14.60;66.20;;;;;;4992557;28;20060;-50
2021/10/01 09:45:05;;;;;;;4.00;3.20;;;14.60;66.40;;;;;;4994079;28;20113;-50
2021/10/01 09:47:37;;;;;;;3.88;3.20;;;14.60;64.50;;;;;;4989609;28;20084;-49
2021/10/01 09:50:11;;;;;;;4.90;3.70;;;14.60;64.30;;;;;;4995096;28;20134;-49
2021/10/01 09:52:48;;;;;;;3.53;3.10;;;14.60;64.00;;;;;;4995430;28;20362;-51
2021/10/01 09:55:16;;;;;;;3.78;3.20;;;14.60;63.60;;;;;;4994761;28;20164;-49
2021/10/01 09:58:00;;;;;;;3.08;2.70;;;14.60;63.40;;;;;;4993047;28;20041;-49
2021/10/01 10:00:49;;;;;;;3.55;2.70;;;14.50;63.00;;;;;;4990760;28;20113;-52
2021/10/01 10:03:24;;;;;;;2.83;2.35;;;14.60;62.90;;;;;;4987237;28;20509;-49
2021/10/01 10:05:56;;;;;;;2.65;2.45;;;14.60;62.60;;;;;;4985847;28;20022;-51
2021/10/01 10:08:41;;;;;;;4.00;3.10;;;14.60;62.30;;;;;;4993841;28;20018;-49
2021/10/01 10:11:11;;;;;;;3.38;2.45;;;14.70;62.00;;;;;;4991938;28;20137;-50
2021/10/01 10:13:49;;;;;;;2.85;2.50;;;14.70;61.80;;;;;;4997749;28;20066;-50
2021/10/01 10:16:19;;;;;;;3.10;2.80;;;14.70;61.40;;;;;;5001894;28;20057;-49
2021/10/01 10:18:48;;;;;;;3.40;2.85;;;14.70;61.30;;;;;;5003696;28;20726;-50
2021/10/01 10:21:15;;;;;;;2.83;2.50;;;14.80;61.10;;;;;;5002193;28;20076;-49
2021/10/01 10:23:41;;;;;;;3.67;3.13;;;14.80;61.20;;;;;;5005040;28;20062;-50
2021/10/01 10:26:07;;;;;;;3.83;3.28;;;14.80;60.60;;;;;;5000949;28;20986;-49
2021/10/01 10:28:34;;;;;;;3.10;2.80;;;14.80;60.50;;;;;;4997473;28;20112;-51
2021/10/01 10:31:00;;;;;;;3.60;2.85;;;14.80;60.30;;;;;;4998554;28;20132;-50
2021/10/01 10:33:42;;;;;;;4.10;2.80;;;14.80;60.10;;;;;;4993531;28;20045;-52
2021/10/01 10:36:29;;;;;;;2.85;2.58;;;14.80;60.10;;;;;;4983515;28;20477;-50
2021/10/01 10:39:17;;;;;;;3.38;2.90;;;14.90;58.80;;;;;;5015706;28;20043;-50
2021/10/01 10:41:48;;;;;;;2.90;2.67;;;14.80;58.60;;;;;;5008405;28;20033;-50
2021/10/01 10:44:15;;;;;;;;;;;14.80;57.90;;;;;;5019292;28;20038;-51
2021/10/01 10:46:42;;;;;;;3.30;2.53;;;14.70;57.10;;;;;;5019967;28;19917;-51
2021/10/01 10:49:17;;;;;;;3.13;2.83;;;14.70;58.20;;;;;;5024293;28;20021;-51
2021/10/01 10:51:58;;;;;;;5.60;2.88;;;14.70;57.90;;;;;;5021196;28;20037;-52
2021/10/01 10:54:25;;;;;;;3.35;3.00;;;14.70;58.00;;;;;;5022975;28;20503;-50
2021/10/01 10:57:16;;;;;;;3.28;2.85;;;14.60;57.90;;;;;;5020097;28;20033;-51
2021/10/01 10:59:49;;;;;;;3.10;2.80;;;14.60;57.10;;;;;;5016054;28;20087;-50
2021/10/01 11:02:19;;;;;;;3.03;2.80;;;14.60;57.40;;;;;;5020412;28;20029;-51
2021/10/01 11:04:49;;;;;;;2.97;2.75;;;14.60;57.40;;;;;;5019691;28;20030;-50
2021/10/01 11:07:45;;;;;;;2.83;2.63;;;14.60;57.50;;;;;;5020634;28;20025;-50
2021/10/01 11:10:33;;;;;;;2.53;2.33;;;14.60;56.70;;;;;;5025536;28;20022;-50
2021/10/01 11:13:22;;;;;;;3.10;2.78;;;14.60;57.00;;;;;;5021230;28;20037;-50
2021/10/01 11:16:12;;;;;;;3.08;2.70;;;14.60;57.00;;;;;;5008030;28;20041;-53
2021/10/01 11:21:28;;;;;;;3.08;2.50;;;14.60;56.80;;;;;;5007462;28;20048;-54
2021/10/01 11:24:14;;;;;;;3.58;2.88;;;14.70;56.90;;;;;;5010396;28;20468;-50
2021/10/01 11:26:52;;;;;;;3.65;3.25;;;14.70;56.50;;;;;;5006910;28;20047;-51
2021/10/01 11:29:26;;;;;;;3.10;2.80;;;14.70;56.60;;;;;;5005747;28;20025;-50
2021/10/01 11:31:59;;;;;;;3.65;2.78;;;14.70;56.30;;;;;;5000360;28;20405;-50
2021/10/01 11:34:39;;;;;;;2.58;2.38;;;14.70;56.20;;;;;;4996789;28;20061;-50
2021/10/01 11:37:24;;;;;;;3.97;2.87;;;14.70;56.20;;;;;;5003272;28;20067;-50
2021/10/01 11:39:59;;;;;;;4.65;2.75;;;14.70;56.10;;;;;;5000739;28;20045;-50
2021/10/01 11:42:34;;;;;;;3.00;2.40;;;14.70;55.90;;;;;;4998642;28;20026;-50
2021/10/01 11:45:07;;;;;;;2.70;2.50;;;14.70;55.80;;;;;;5000523;28;20124;-50
2021/10/01 11:47:33;;;;;;;3.72;2.80;;;14.70;55.80;;;;;;5002714;28;20112;-49
2021/10/01 11:49:59;;;;;;;3.25;2.88;;;14.70;55.90;;;;;;5001796;28;20033;-53
2021/10/01 11:52:27;;;;;;;2.67;2.40;;;14.70;55.90;;;;;;5003023;28;20033;-50
2021/10/01 11:54:56;;;;;;;2.40;2.20;;;14.80;55.90;;;;;;5012833;28;20511;-50
2021/10/01 11:57:22;;;;;;;2.83;2.58;;;14.80;56.00;;;;;;5003474;28;20034;-50
2021/10/01 11:59:52;;;;;;;2.70;2.50;;;14.80;56.30;;;;;;5005911;28;20037;-51
2021/10/01 12:02:42;;;;;;;2.22;2.08;;;14.80;56.30;;;;;;5005108;28;20029;-51
2021/10/01 12:05:18;;;;;;;2.63;2.13;;;14.90;56.30;;;;;;5004483;28;20030;-53
2021/10/01 12:07:46;;;;;;;2.33;2.13;;;14.90;56.50;;;;;;5000351;28;20038;-51
2021/10/01 12:10:11;;;;;;;3.95;2.50;;;14.90;56.50;;;;;;4999409;28;20033;-51
2021/10/01 12:12:37;;;;;;;2.83;2.13;;;15.00;56.60;;;;;;5000659;28;21678;-52
2021/10/01 12:15:03;;;;;;;2.53;2.33;;;15.00;56.70;;;;;;5002932;28;20488;-52
2021/10/01 12:17:38;;;;;;;2.67;2.47;;;15.00;56.60;;;;;;5003790;28;20041;-53
2021/10/01 12:20:04;;;;;;;2.85;2.30;;;15.10;56.50;;;;;;4991588;28;20544;-51
2021/10/01 12:22:32;;;;;;;2.85;2.53;;;15.10;56.50;;;;;;5000474;28;20040;-50
2021/10/01 12:24:58;;;;;;;2.78;2.53;;;15.10;56.20;;;;;;5007654;28;24007;-50
2021/10/01 12:27:44;;;;;;;2.63;2.20;;;15.10;56.30;;;;;;5012341;28;20485;-50
2021/10/01 12:30:10;;;;;;;2.58;2.33;;;15.20;56.20;;;;;;5006998;28;20037;-50
2021/10/01 12:32:36;;;;;;;2.58;2.33;;;15.20;56.20;;;;;;5015773;28;20029;-50
2021/10/01 12:35:04;;;;;;;2.40;2.20;;;15.20;56.50;;;;;;5008055;28;20048;-51
2021/10/01 12:37:37;;;;;;;3.22;2.45;;;15.20;56.50;;;;;;5008027;28;20168;-53
2021/10/01 12:40:04;;;;;;;4.45;2.40;;;15.20;56.40;;;;;;5009029;28;20477;-51
2021/10/01 12:42:35;;;;;;;3.67;3.05;;;15.20;56.30;;;;;;5008291;28;20102;-51
2021/10/01 12:45:09;;;;;;;2.90;2.63;;;15.20;56.00;;;;;;5009087;28;20532;-52
2021/10/01 12:47:37;;;;;;;2.70;2.47;;;15.20;56.10;;;;;;5011164;28;20040;-52
2021/10/01 12:50:15;;;;;;;2.80;2.50;;;15.20;56.20;;;;;;5006761;28;20152;-53
2021/10/01 12:52:44;;;;;;;3.17;2.70;;;15.20;56.20;;;;;;5008203;28;21569;-50
2021/10/01 12:55:12;;;;;;;3.03;2.45;;;15.20;56.30;;;;;;5007993;28;20469;-50
2021/10/01 12:57:46;;;;;;;2.35;2.15;;;15.20;56.40;;;;;;5011781;28;20041;-52
2021/10/01 13:00:16;;;;;;;3.08;2.65;;;15.30;56.40;;;;;;5009061;28;20080;-51
2021/10/01 13:02:52;;;;;;;3.03;2.45;;;15.30;56.40;;;;;;5007775;28;20025;-50
2021/10/01 13:05:28;;;;;;;3.90;2.88;;;15.30;56.30;;;;;;5007934;28;20378;-54
2021/10/01 13:07:57;;;;;;;2.92;2.67;;;15.20;55.90;;;;;;5007654;28;20062;-53
2021/10/01 13:10:38;;;;;;;3.20;2.38;;;15.20;56.00;;;;;;5008723;28;20088;-51
2021/10/01 13:13:16;;;;;;;3.70;2.58;;;15.20;56.30;;;;;;5012123;28;20128;-50
2021/10/01 13:15:51;;;;;;;2.45;2.25;;;15.20;56.10;;;;;;5015495;28;20060;-51
2021/10/01 13:18:38;;;;;;;2.63;2.42;;;15.20;56.00;;;;;;5012746;28;20656;-53
2021/10/01 13:21:21;;;;;;;3.10;2.60;;;15.20;56.00;;;;;;5009198;28;20033;-52
2021/10/01 13:23:53;;;;;;;2.35;1.90;;;15.20;56.00;;;;;;5012519;28;20046;-50
2021/10/01 13:26:26;;;;;;;5.07;3.00;;;15.20;55.90;;;;;;5009066;28;20034;-51
2021/10/01 13:29:02;;;;;;;2.55;2.35;;;15.20;56.60;;;;;;5007633;28;20068;-51
2021/10/01 13:31:30;;;;;;;3.47;2.60;;;15.20;56.00;;;;;;5011282;28;20075;-50
2021/10/01 13:33:57;;;;;;;2.88;2.58;;;15.20;56.30;;;;;;5010687;28;20033;-51
2021/10/01 13:36:23;;;;;;;4.32;3.55;;;15.20;56.00;;;;;;5014480;28;20049;-50
2021/10/01 13:38:50;;;;;;;3.58;3.10;;;15.20;55.90;;;;;;5009326;28;20149;-53
2021/10/01 13:41:17;;;;;;;3.25;2.70;;;15.20;55.70;;;;;;5005787;28;20033;-52
2021/10/01 13:43:44;;;;;;;4.28;2.85;;;15.20;55.50;;;;;;5009220;28;20784;-51
2021/10/01 13:46:12;;;;;;;5.07;3.40;;;15.20;55.50;;;;;;5009770;28;20030;-50
2021/10/01 13:48:38;;;;;;;3.70;2.72;;;15.20;55.50;;;;;;5008347;28;20046;-50
2021/10/01 13:51:04;;;;;;;3.15;2.65;;;15.20;55.40;;;;;;5009731;28;20592;-53
2021/10/01 13:53:31;;;;;;;2.58;2.38;;;15.20;55.40;;;;;;5010686;28;20393;-52
2021/10/01 13:55:57;;;;;;;3.58;3.08;;;15.20;55.40;;;;;;5009270;28;20068;-52
2021/10/01 13:58:23;;;;;;;2.97;2.42;;;15.20;55.50;;;;;;5006388;28;20039;-50
2021/10/01 14:00:50;;;;;;;2.97;2.30;;;15.20;55.80;;;;;;5005602;28;20535;-50
2021/10/01 14:03:17;;;;;;;2.15;1.95;;;15.20;56.10;;;;;;5008480;28;20061;-50
2021/10/01 14:05:43;;;;;;;2.38;2.17;;;15.20;56.50;;;;;;5002487;28;20044;-53
2021/10/01 14:08:09;;;;;;;2.53;2.33;;;15.30;56.60;;;;;;5002497;28;20041;-50
2021/10/01 14:10:36;;;;;;;3.60;2.47;;;15.30;56.60;;;;;;5004928;28;20113;-51
2021/10/01 14:13:05;;;;;;;3.17;2.88;;;15.30;56.50;;;;;;5009404;28;20037;-52
2021/10/01 14:15:31;;;;;;;4.60;3.10;;;15.30;56.30;;;;;;5008931;28;20449;-49
2021/10/01 14:17:57;;;;;;;3.03;2.60;;;15.30;56.10;;;;;;5001286;28;20176;-52
2021/10/01 14:20:27;;;;;;;5.03;2.95;;;15.30;56.20;;;;;;5002366;28;20079;-51
2021/10/01 14:22:53;;;;;;;2.90;2.60;;;15.30;56.30;;;;;;5002617;28;20473;-52
2021/10/01 14:25:20;;;;;;;3.40;2.70;;;15.30;56.20;;;;;;5005431;28;20131;-50
2021/10/01 14:27:47;;;;;;;4.43;3.03;;;15.30;56.30;;;;;;5009891;28;20044;-48
2021/10/01 14:30:16;;;;;;;3.40;2.90;;;15.30;56.40;;;;;;5006673;28;20116;-48
2021/10/01 14:32:42;;;;;;;5.65;3.20;;;15.30;56.40;;;;;;5007148;28;20152;-48
2021/10/01 14:35:10;;;;;;;4.40;3.03;;;15.30;56.50;;;;;;5008758;28;20040;-48
2021/10/01 14:37:36;;;;;;;5.13;3.08;;;15.30;56.70;;;;;;5010422;28;20107;-48
2021/10/01 14:40:04;;;;;;;3.40;2.97;;;15.30;56.90;;;;;;5012959;28;20489;-49